Airfield :
LOGIN :

Register | Disclaimer

   EN    FR    IT 

 










Legend :    VFR   Marginal VFR   IFR   Intensive IFR   Very Intensive IFR
Visi :
Ceiling :
>= 8 km
>= 3000ft
5 to 8 km
1000 to 3000 ft
1500m to 5 km
500 to 1000 ft
800 to 1500m
200 to 500 ft
< 800m
< 200 ft
Symbols :   Thunderstorms  Fog  Heavy snow  Heavy precipitations  Wind > 20 kt
SIGMETs :     Misc.  Thunderstorms  Icing  Turbulence  Mountain Waves  Volcanic Ashes






- Airport Elevation : 276 ft
- IATA code : RBA


GMME - Rabat

CURRENT METAR :
  • 111400Z 30009KT 7000 NSC 28/21 Q1009 NOSIG

EXPIRED METARs :
  • 111330Z 30009KT 7000 NSC 27/21 Q1009 NOSIG
  • 111300Z 30009KT 7000 NSC 27/21 Q1010 NOSIG
  • 111200Z 30008KT 7000 NSC 27/21 Q1010 NOSIG
  • 111130Z 31008KT 7000 NSC 26/21 Q1010 NOSIG

TAF TAF GMME
Valid from the 11 at 12:00 until the 12 at 18:00 UTC


111100Z 1112/1218 32008KT 8000 NSC
TEMPO 1118/1124 26004KT 5000 SCT005
TEMPO 1200/1206 VRB02KT
PROB30
TEMPO 1205/1209 3000 BR BKN004
BECMG 1209/1212 6000 NSW NSC



MET'MAP, your aeronautical weather chart ! - Copyright ORBIFLY December 2007 - Disclaimer

ORBIFLY MET'MAP TEAM :

Programming & Development : Alexandra Zaïnal
Concept & original design : Baudouin d'Aumeries
Assistance for programming : Marc-Olivier Méhu
Technical & hardware support : Manuel Goepfert

Contact : metmap@orbifly.com




SOURCES & CREDITS :

   NOAA